createdAt,value
2023-09-23T00:00:13.161Z,100549.47
2023-09-23T00:02:44.425Z,100541.44
2023-09-23T00:05:16.446Z,100535.53
2023-09-23T00:07:46.091Z,100541.44
2023-09-23T00:10:14.389Z,100541.75
2023-09-23T00:12:43.001Z,100550.38
2023-09-23T00:15:12.889Z,100512.06
2023-09-23T00:17:42.502Z,100540.88
2023-09-23T00:20:17.603Z,100555.03
2023-09-23T00:22:48.098Z,100576.06
2023-09-23T00:25:19.911Z,100560.97
2023-09-23T00:27:50.164Z,100562.06
2023-09-23T00:30:19.164Z,100572.75
2023-09-23T00:32:50.038Z,100574.16
2023-09-23T00:35:20.038Z,100577.16
2023-09-23T00:37:51.452Z,100584.78
2023-09-23T00:40:24.943Z,100591.38
2023-09-23T00:42:53.304Z,100590.09
2023-09-23T00:45:23.420Z,100596.22
2023-09-23T00:47:53.288Z,100605.63
2023-09-23T00:50:21.951Z,100609.91
2023-09-23T00:52:55.187Z,100608.97
2023-09-23T00:55:25.438Z,100603.59
2023-09-23T00:57:55.353Z,100590.41
2023-09-23T01:00:28.317Z,100594.91
2023-09-23T01:02:57.629Z,100600.91
2023-09-23T01:05:28.781Z,100596.59
2023-09-23T01:08:12.406Z,100606.56
2023-09-23T01:10:41.488Z,100596.97
2023-09-23T01:13:09.998Z,100604.31
2023-09-23T01:15:41.683Z,100594.78
2023-09-23T01:18:14.963Z,100595.91
2023-09-23T01:20:44.205Z,100602.22
2023-09-23T01:23:14.460Z,100594.00
2023-09-23T01:25:44.620Z,100596.56
2023-09-23T01:28:14.781Z,100591.34
2023-09-23T01:30:45.315Z,100588.56
2023-09-23T01:33:15.256Z,100596.47
2023-09-23T01:35:45.074Z,100602.78
2023-09-23T01:38:16.719Z,100609.63
2023-09-23T01:40:46.023Z,100618.00
2023-09-23T01:43:15.651Z,100627.47
2023-09-23T01:45:44.190Z,100629.22
2023-09-23T01:48:12.826Z,100581.69
2023-09-23T01:50:42.845Z,100621.16
2023-09-23T01:53:20.114Z,100621.13
2023-09-23T01:55:49.885Z,100619.19
2023-09-23T01:58:18.162Z,100610.16
2023-09-23T02:00:46.476Z,100608.38
2023-09-23T02:03:16.079Z,100617.22
2023-09-23T02:05:44.551Z,100618.00
2023-09-23T02:08:13.061Z,100616.28
2023-09-23T02:10:45.500Z,100619.56
2023-09-23T02:13:15.356Z,100618.63
2023-09-23T02:15:46.828Z,100624.84
2023-09-23T02:18:16.372Z,100632.84
2023-09-23T02:20:45.292Z,100627.56
2023-09-23T02:23:15.502Z,100633.63
2023-09-23T02:25:44.482Z,100630.09
2023-09-23T02:28:14.713Z,100637.00
2023-09-23T02:30:43.305Z,100526.09
2023-09-23T02:33:11.703Z,100625.81
2023-09-23T02:35:41.299Z,100635.28
2023-09-23T02:38:11.363Z,100526.94
2023-09-23T02:40:44.362Z,100641.50
2023-09-23T02:43:14.109Z,100643.22
2023-09-23T02:45:42.445Z,100642.28
2023-09-23T02:48:14.753Z,100642.19
2023-09-23T02:50:43.554Z,100650.00
2023-09-23T02:53:12.081Z,100649.06
2023-09-23T02:55:42.921Z,100663.34
2023-09-23T02:58:11.477Z,100670.34
2023-09-23T03:00:42.225Z,100678.34
2023-09-23T03:03:20.406Z,100690.97
2023-09-23T03:05:56.401Z,100690.00
2023-09-23T03:08:25.291Z,100687.19
2023-09-23T03:10:54.315Z,100688.78
2023-09-23T03:13:24.984Z,100678.94
2023-09-23T03:15:59.303Z,100682.31
2023-09-23T03:18:34.815Z,100682.53
2023-09-23T03:21:09.375Z,100685.19
2023-09-23T03:23:38.895Z,100696.19
2023-09-23T03:26:08.136Z,100690.16
2023-09-23T03:28:38.017Z,100691.09
2023-09-23T03:31:10.158Z,100694.38
2023-09-23T03:33:46.165Z,100691.44
2023-09-23T03:36:17.124Z,100684.34
2023-09-23T03:38:47.898Z,100700.88
2023-09-23T03:41:16.437Z,100693.97
2023-09-23T03:43:44.896Z,100702.78
2023-09-23T03:46:17.422Z,100700.94
2023-09-23T03:48:46.566Z,100703.50
2023-09-23T03:51:16.149Z,100704.28
2023-09-23T03:53:46.155Z,100706.94
2023-09-23T03:56:14.658Z,100713.88
2023-09-23T03:58:44.561Z,100707.66
2023-09-23T04:01:15.722Z,100709.72
2023-09-23T04:03:44.951Z,100687.88
2023-09-23T04:06:13.390Z,100721.34
2023-09-23T04:08:42.091Z,100738.16
2023-09-23T04:11:10.522Z,100728.34
2023-09-23T04:13:39.312Z,100723.09
2023-09-23T04:16:07.696Z,100730.25
2023-09-23T04:18:38.367Z,100733.72
2023-09-23T04:21:06.814Z,100729.22
2023-09-23T04:23:35.166Z,100727.59
2023-09-23T04:26:04.489Z,100738.16
2023-09-23T04:28:33.646Z,100741.63
2023-09-23T04:31:01.992Z,100741.75
2023-09-23T04:33:30.488Z,100746.50
2023-09-23T04:36:00.245Z,100757.88
2023-09-23T04:38:28.651Z,100758.59
2023-09-23T04:40:56.952Z,100763.03
2023-09-23T04:43:26.801Z,100760.38
2023-09-23T04:45:55.370Z,100770.09
2023-09-23T04:48:26.008Z,100769.31
2023-09-23T04:50:57.286Z,100776.78
2023-09-23T04:53:28.282Z,100774.91
2023-09-23T04:55:56.642Z,100773.97
2023-09-23T04:58:24.954Z,100783.50
2023-09-23T05:00:53.708Z,100789.69
2023-09-23T05:03:24.457Z,100791.47
2023-09-23T05:05:53.033Z,100794.09
2023-09-23T05:08:21.378Z,100790.44
2023-09-23T05:10:51.249Z,100799.91
2023-09-23T05:13:19.615Z,100792.75
2023-09-23T05:15:47.996Z,100798.03
2023-09-23T05:18:16.316Z,100796.31
2023-09-23T05:20:44.592Z,100801.56
2023-09-23T05:23:13.115Z,100808.72
2023-09-23T05:25:42.485Z,100806.03
2023-09-23T05:28:12.309Z,100808.63
2023-09-23T05:30:40.755Z,100785.16
2023-09-23T05:33:10.001Z,100820.41
2023-09-23T05:35:40.305Z,100820.59
2023-09-23T05:38:10.721Z,100825.94
2023-09-23T05:40:39.102Z,100832.06
2023-09-23T05:43:07.787Z,100855.06
2023-09-23T05:45:39.064Z,100836.59
2023-09-23T05:48:08.896Z,100858.06
2023-09-23T05:50:37.752Z,100852.47
2023-09-23T05:53:06.495Z,100858.63
2023-09-23T05:55:34.849Z,100854.19
2023-09-23T05:58:03.281Z,100864.88
2023-09-23T06:00:31.626Z,100863.81
2023-09-23T06:03:01.680Z,100878.84
2023-09-23T06:05:30.113Z,100879.63
2023-09-23T06:07:58.525Z,100877.63
2023-09-23T06:10:26.852Z,100875.34
2023-09-23T06:12:55.647Z,100883.06
2023-09-23T06:15:24.185Z,100883.78
2023-09-23T06:17:52.598Z,100891.66
2023-09-23T06:20:22.333Z,100895.94
2023-09-23T06:22:50.648Z,100889.66
2023-09-23T06:25:19.456Z,100904.59
2023-09-23T06:27:48.097Z,100904.50
2023-09-23T06:30:16.804Z,100902.75
2023-09-23T06:32:45.799Z,100903.78
2023-09-23T06:35:15.709Z,100912.59
2023-09-23T06:37:45.501Z,100924.38
2023-09-23T06:40:14.048Z,100935.97
2023-09-23T06:42:42.372Z,100937.75
2023-09-23T06:45:11.557Z,100938.53
2023-09-23T06:47:40.003Z,100944.72
2023-09-23T06:50:09.532Z,100944.81
2023-09-23T06:52:38.010Z,100949.84
2023-09-23T06:55:08.729Z,100947.28
2023-09-23T06:57:36.889Z,100953.28
2023-09-23T07:00:08.668Z,100955.19
2023-09-23T07:02:37.416Z,100914.47
2023-09-23T07:05:06.693Z,100957.41
2023-09-23T07:07:35.073Z,100964.47
2023-09-23T07:10:05.308Z,100962.44
2023-09-23T07:12:35.233Z,100968.81
2023-09-23T07:15:03.580Z,100969.50
2023-09-23T07:17:31.906Z,100977.28
2023-09-23T07:20:00.300Z,100982.56
2023-09-23T07:22:28.605Z,100983.34
2023-09-23T07:24:57.188Z,100987.69
2023-09-23T07:27:25.785Z,100984.19
2023-09-23T07:29:55.846Z,100994.75
2023-09-23T07:32:24.252Z,100997.53
2023-09-23T07:34:53.337Z,101002.16
2023-09-23T07:37:21.992Z,101009.28
2023-09-23T07:39:50.249Z,101013.69
2023-09-23T07:42:18.663Z,101017.94
2023-09-23T07:44:47.079Z,101026.78
2023-09-23T07:47:16.675Z,101005.41
2023-09-23T07:49:45.124Z,101034.06
2023-09-23T07:52:13.415Z,101045.59
2023-09-23T07:54:41.732Z,101050.75
2023-09-23T07:57:09.966Z,101054.03
2023-09-23T07:59:38.226Z,101063.19
2023-09-23T08:02:06.666Z,101068.44
2023-09-23T08:04:36.508Z,101068.19
2023-09-23T08:07:05.246Z,101072.69
2023-09-23T08:09:33.549Z,101083.53
2023-09-23T08:12:01.793Z,101083.31
2023-09-23T08:14:30.576Z,101093.13
2023-09-23T08:16:58.958Z,101093.84
2023-09-23T08:19:27.200Z,101100.38
2023-09-23T08:21:56.846Z,101108.88
2023-09-23T08:24:25.139Z,101114.91
2023-09-23T08:26:54.545Z,101113.06
2023-09-23T08:29:25.088Z,101130.25
2023-09-23T08:31:53.622Z,101122.88
2023-09-23T08:34:22.025Z,101133.91
2023-09-23T08:36:50.262Z,101134.75
2023-09-23T08:39:20.506Z,101139.44
2023-09-23T08:41:53.586Z,101152.81
2023-09-23T08:44:26.596Z,101146.94
2023-09-23T08:46:59.583Z,101161.09
2023-09-23T08:49:31.986Z,101147.19
2023-09-23T08:52:06.593Z,101164.41
2023-09-23T08:54:38.639Z,101165.72
2023-09-23T08:57:07.065Z,101170.16
2023-09-23T08:59:35.466Z,101168.50
2023-09-23T09:02:04.240Z,101181.75
2023-09-23T09:04:32.701Z,101183.94
2023-09-23T09:07:00.979Z,101186.75
2023-09-23T09:09:29.226Z,101181.31
2023-09-23T09:12:00.103Z,101197.19
2023-09-23T09:14:28.489Z,101198.59
2023-09-23T09:16:56.841Z,101204.03
2023-09-23T09:19:25.148Z,101211.06
2023-09-23T09:21:54.482Z,101208.69
2023-09-23T09:24:23.573Z,101214.84
2023-09-23T09:26:53.052Z,101217.97
2023-09-23T09:29:23.090Z,101226.94
2023-09-23T09:31:53.242Z,101231.34
2023-09-23T09:34:26.949Z,101229.19
2023-09-23T09:36:58.334Z,101221.50
2023-09-23T09:39:31.947Z,101222.03
2023-09-23T09:42:01.056Z,101236.78
2023-09-23T09:44:32.306Z,101229.41
2023-09-23T09:47:01.424Z,101233.34
2023-09-23T09:49:30.235Z,101241.59
2023-09-23T09:51:58.866Z,101240.97
2023-09-23T09:54:27.692Z,101246.78
2023-09-23T09:56:57.242Z,101245.66
2023-09-23T09:59:28.360Z,101249.53
2023-09-23T10:02:00.198Z,101246.81
2023-09-23T10:04:33.512Z,101253.88
2023-09-23T10:07:03.081Z,101252.78
2023-09-23T10:09:34.509Z,101265.97
2023-09-23T10:12:05.515Z,101262.34
2023-09-23T10:14:34.838Z,101267.91
2023-09-23T10:17:06.942Z,101277.59
2023-09-23T10:19:40.141Z,101279.81
2023-09-23T10:22:14.959Z,101272.63
2023-09-23T10:24:43.558Z,101276.13
2023-09-23T10:27:12.584Z,101291.53
2023-09-23T10:29:46.836Z,101286.13
2023-09-23T10:32:18.666Z,101292.75
2023-09-23T10:34:49.378Z,101282.19
2023-09-23T10:37:27.714Z,101297.06
2023-09-23T10:39:56.058Z,101301.16
2023-09-23T10:42:24.693Z,101306.81
2023-09-23T10:44:53.335Z,101311.66
2023-09-23T10:47:23.127Z,101320.09
2023-09-23T10:49:51.399Z,101308.19
2023-09-23T10:52:19.741Z,101322.34
2023-09-23T10:54:50.237Z,101323.47
2023-09-23T10:57:18.585Z,101334.41
2023-09-23T10:59:48.010Z,101328.97
2023-09-23T11:02:16.256Z,101337.41
2023-09-23T11:04:50.815Z,101342.91
2023-09-23T11:07:19.299Z,101350.63
2023-09-23T11:09:48.703Z,101339.50
2023-09-23T11:12:18.656Z,101356.06
2023-09-23T11:14:48.667Z,101355.72
2023-09-23T11:17:26.487Z,101353.06
2023-09-23T11:19:58.097Z,101363.47
2023-09-23T11:22:27.363Z,101370.59
2023-09-23T11:24:57.607Z,101381.72
2023-09-23T11:27:28.087Z,101375.91
2023-09-23T11:29:57.647Z,101379.06
2023-09-23T11:32:27.252Z,101364.19
2023-09-23T11:34:58.183Z,101289.44
2023-09-23T11:37:26.517Z,101385.50
2023-09-23T11:39:55.126Z,101391.22
2023-09-23T11:42:23.353Z,101384.94
2023-09-23T11:44:51.683Z,101387.53
2023-09-23T11:47:22.542Z,101402.38
2023-09-23T11:49:52.124Z,101404.19
2023-09-23T11:52:21.801Z,101407.63
2023-09-23T11:54:50.117Z,101408.19
2023-09-23T11:57:18.426Z,101415.78
2023-09-23T11:59:46.810Z,101418.13
2023-09-23T12:02:15.386Z,101427.78
2023-09-23T12:04:43.752Z,101433.59
2023-09-23T12:07:12.251Z,101432.69
2023-09-23T12:09:42.049Z,101436.69
2023-09-23T12:12:11.575Z,101434.38
2023-09-23T12:14:43.724Z,101448.59
2023-09-23T12:17:15.578Z,101434.91
2023-09-23T12:19:45.356Z,101435.75
2023-09-23T12:22:17.033Z,101418.22
2023-09-23T12:24:47.341Z,101438.38
2023-09-23T12:27:15.650Z,101453.84
2023-09-23T12:29:43.909Z,101445.81
2023-09-23T12:32:13.035Z,101454.06
2023-09-23T12:34:41.698Z,101448.78
2023-09-23T12:37:10.748Z,101450.53
2023-09-23T12:39:38.962Z,101456.88
2023-09-23T12:42:08.759Z,101462.94
2023-09-23T12:44:37.132Z,101466.81
2023-09-23T12:47:05.930Z,101465.94
2023-09-23T12:49:34.263Z,101472.50
2023-09-23T12:52:02.556Z,101475.53
2023-09-23T12:54:31.017Z,101466.34
2023-09-23T12:56:59.284Z,101480.34
2023-09-23T12:59:29.439Z,101485.84
2023-09-23T13:01:57.910Z,101485.84
2023-09-23T13:04:26.560Z,101486.63
2023-09-23T13:06:54.893Z,101491.81
2023-09-23T13:09:23.180Z,101494.34
2023-09-23T13:11:51.559Z,101494.34
2023-09-23T13:14:22.249Z,101497.03
2023-09-23T13:16:52.556Z,101489.63
2023-09-23T13:19:20.914Z,101504.38
2023-09-23T13:21:49.279Z,101493.72
2023-09-23T13:24:17.624Z,101499.59
2023-09-23T13:26:46.007Z,101497.66
2023-09-23T13:29:15.575Z,101512.78
2023-09-23T13:31:43.916Z,101505.94
2023-09-23T13:34:13.528Z,101513.31
2023-09-23T13:36:41.901Z,101519.09
2023-09-23T13:39:10.493Z,101530.06
2023-09-23T13:41:39.195Z,101530.31
2023-09-23T13:44:08.613Z,101530.59
2023-09-23T13:46:37.988Z,101527.97
2023-09-23T13:49:06.460Z,101545.59
2023-09-23T13:51:36.216Z,101544.34
2023-09-23T13:54:05.043Z,101546.78
2023-09-23T13:56:33.278Z,101555.59
2023-09-23T13:59:01.875Z,101555.19
2023-09-23T14:01:30.678Z,101557.16
2023-09-23T14:03:59.001Z,101550.31
2023-09-23T14:06:27.315Z,101560.56
2023-09-23T14:08:56.913Z,101561.38
2023-09-23T14:11:25.854Z,101565.81
2023-09-23T14:13:54.233Z,101565.06
2023-09-23T14:16:23.439Z,101579.06
2023-09-23T14:18:51.807Z,101574.44
2023-09-23T14:21:20.132Z,101569.81
2023-09-23T14:23:48.426Z,101579.47
2023-09-23T14:26:18.600Z,101576.91
2023-09-23T14:28:47.321Z,101553.94
2023-09-23T14:31:15.958Z,101581.38
2023-09-23T14:33:44.344Z,101581.38
2023-09-23T14:36:12.633Z,101581.38
2023-09-23T14:38:40.869Z,101589.81
2023-09-23T14:41:09.867Z,101590.31
2023-09-23T14:43:39.572Z,101591.16
2023-09-23T14:46:08.163Z,101590.47
2023-09-23T14:48:36.500Z,101600.66
2023-09-23T14:51:04.922Z,101605.75
2023-09-23T14:53:33.759Z,101607.94
2023-09-23T14:56:02.117Z,101615.84
2023-09-23T14:58:30.472Z,101595.31
2023-09-23T15:01:00.259Z,101616.00
2023-09-23T15:03:29.056Z,101617.97
2023-09-23T15:05:57.437Z,101625.16
2023-09-23T15:08:25.829Z,101599.72
2023-09-23T15:10:54.601Z,101625.84
2023-09-23T15:13:22.912Z,101632.97
2023-09-23T15:15:51.236Z,101637.88
2023-09-23T15:18:20.997Z,101636.06
2023-09-23T15:20:49.325Z,101643.56
2023-09-23T15:23:17.723Z,101649.47
2023-09-23T15:25:46.074Z,101653.09
2023-09-23T15:28:14.591Z,101647.69
2023-09-23T15:30:43.881Z,101560.44
2023-09-23T15:33:12.424Z,101657.22
2023-09-23T15:35:42.283Z,101684.25
2023-09-23T15:38:12.355Z,101662.66
2023-09-23T15:40:44.019Z,101647.75
2023-09-23T15:43:12.910Z,101662.59
2023-09-23T15:45:43.679Z,101676.09
2023-09-23T15:48:12.275Z,101688.59
2023-09-23T15:50:41.964Z,101680.63
2023-09-23T15:53:10.310Z,101688.38
2023-09-23T15:55:38.946Z,101694.53
2023-09-23T15:58:07.164Z,101698.97
2023-09-23T16:00:35.556Z,101705.00
2023-09-23T16:03:03.981Z,101702.25
2023-09-23T16:05:32.281Z,101709.13
2023-09-23T16:08:01.919Z,101706.47
2023-09-23T16:10:30.204Z,101713.59
2023-09-23T16:12:58.544Z,101708.41
2023-09-23T16:15:26.918Z,101718.38
2023-09-23T16:17:55.213Z,101710.31
2023-09-23T16:20:23.579Z,101720.78
2023-09-23T16:22:52.975Z,101728.25
2023-09-23T16:25:22.612Z,101731.81
2023-09-23T16:27:50.894Z,101725.34
2023-09-23T16:30:19.240Z,101724.84
2023-09-23T16:32:47.572Z,101736.06
2023-09-23T16:35:16.022Z,101728.25
2023-09-23T16:37:45.074Z,101735.53
2023-09-23T16:40:14.795Z,101747.06
2023-09-23T16:42:44.510Z,101741.78
2023-09-23T16:45:12.847Z,101742.94
2023-09-23T16:47:41.276Z,101752.72
2023-09-23T16:50:10.286Z,101758.88
2023-09-23T16:52:38.652Z,101758.06
2023-09-23T16:55:07.691Z,101769.00
2023-09-23T16:57:36.438Z,101771.00
2023-09-23T17:00:08.650Z,101779.94
2023-09-23T17:02:37.187Z,101779.00
2023-09-23T17:05:06.525Z,101785.50
2023-09-23T17:07:35.569Z,101787.19
2023-09-23T17:10:05.059Z,101790.00
2023-09-23T17:12:33.805Z,101796.16
2023-09-23T17:15:02.728Z,101802.34
2023-09-23T17:17:33.076Z,101787.47
2023-09-23T17:20:01.922Z,101805.34
2023-09-23T17:22:30.273Z,101808.50
2023-09-23T17:24:58.541Z,101811.13
2023-09-23T17:27:27.205Z,101819.03
2023-09-23T17:29:55.683Z,101817.47
2023-09-23T17:32:24.203Z,101819.94
2023-09-23T17:34:53.785Z,101822.06
2023-09-23T17:37:22.518Z,101823.56
2023-09-23T17:39:50.728Z,101817.03
2023-09-23T17:42:19.443Z,101824.03
2023-09-23T17:44:49.574Z,101819.47
2023-09-23T17:47:17.926Z,101826.44
2023-09-23T17:49:46.457Z,101837.06
2023-09-23T17:52:16.140Z,101820.97
2023-09-23T17:54:44.830Z,101831.97
2023-09-23T17:57:13.093Z,101838.28
2023-09-23T17:59:41.404Z,101841.19
2023-09-23T18:02:10.378Z,101847.53
2023-09-23T18:04:39.500Z,101852.31
2023-09-23T18:07:08.084Z,101847.97
2023-09-23T18:09:39.580Z,101850.84
2023-09-23T18:12:09.876Z,101857.09
2023-09-23T18:14:38.271Z,101850.16
2023-09-23T18:17:06.485Z,101861.59
2023-09-23T18:19:37.931Z,101851.81
2023-09-23T18:22:06.469Z,101856.22
2023-09-23T18:24:34.865Z,101789.44
2023-09-23T18:27:04.813Z,101863.44
2023-09-23T18:29:33.137Z,101867.13
2023-09-23T18:32:01.499Z,101867.13
2023-09-23T18:34:29.857Z,101869.88
2023-09-23T18:36:58.319Z,101870.00
2023-09-23T18:39:26.632Z,101878.94
2023-09-23T18:41:54.914Z,101886.09
2023-09-23T18:44:24.858Z,101885.44
2023-09-23T18:46:53.170Z,101894.56
2023-09-23T18:49:21.553Z,101892.69
2023-09-23T18:51:49.802Z,101898.00
2023-09-23T18:54:18.048Z,101892.75
2023-09-23T18:56:46.982Z,101905.16
2023-09-23T18:59:16.367Z,101907.78
2023-09-23T19:01:46.064Z,101913.06
2023-09-23T19:04:14.392Z,101920.25
2023-09-23T19:06:42.761Z,101926.53
2023-09-23T19:09:12.027Z,101928.28
2023-09-23T19:11:40.661Z,101926.19
2023-09-23T19:14:09.114Z,101933.72
2023-09-23T19:16:37.459Z,101933.91
2023-09-23T19:19:07.156Z,101933.19
2023-09-23T19:21:35.898Z,101941.44
2023-09-23T19:24:04.290Z,101941.69
2023-09-23T19:26:44.797Z,101951.13
2023-09-23T19:29:21.005Z,101954.19
2023-09-23T19:31:49.478Z,101948.59
2023-09-23T19:34:19.133Z,101962.56
2023-09-23T19:36:47.396Z,101967.84
2023-09-23T19:39:17.958Z,101965.91
2023-09-23T19:41:46.145Z,101963.91
2023-09-23T19:44:14.596Z,101962.94
2023-09-23T19:46:43.109Z,101966.47
2023-09-23T19:49:11.368Z,101969.16
2023-09-23T19:51:41.032Z,101972.66
2023-09-23T19:54:11.054Z,101975.25
2023-09-23T19:56:39.407Z,101975.25
2023-09-23T19:59:07.667Z,101970.84
2023-09-23T20:01:37.830Z,101981.44
2023-09-23T20:04:06.397Z,101980.53
2023-09-23T20:06:35.063Z,101986.72
2023-09-23T20:09:05.383Z,101986.72
2023-09-23T20:11:33.721Z,101982.31
2023-09-23T20:14:02.016Z,101987.78
2023-09-23T20:18:59.368Z,101975.56
2023-09-23T20:21:28.562Z,101985.38
2023-09-23T20:23:56.960Z,101989.13
2023-09-23T20:26:26.643Z,101995.41
2023-09-23T20:28:54.978Z,101993.69
2023-09-23T20:31:23.252Z,101991.03
2023-09-23T20:33:51.615Z,101994.59
2023-09-23T20:36:20.853Z,102000.13
2023-09-23T20:38:49.989Z,102000.19
2023-09-23T20:41:18.381Z,101999.38
2023-09-23T20:43:50.958Z,102013.75
2023-09-23T20:46:19.507Z,102012.03
2023-09-23T20:48:47.803Z,102011.06
2023-09-23T20:51:17.586Z,102015.38
2023-09-23T20:53:46.447Z,102023.31
2023-09-23T20:56:15.181Z,102022.38
2023-09-23T20:58:43.570Z,102016.16
2023-09-23T21:01:13.253Z,102019.66
2023-09-23T21:03:42.515Z,102021.44
2023-09-23T21:06:10.924Z,102025.03
2023-09-23T21:08:39.244Z,102027.78
2023-09-23T21:11:08.912Z,102029.63
2023-09-23T21:13:37.140Z,102027.88
2023-09-23T21:16:06.354Z,102036.69
2023-09-23T21:18:36.465Z,102035.63
2023-09-23T21:21:05.003Z,102035.72
2023-09-23T21:23:33.444Z,102043.00
2023-09-23T21:26:01.657Z,102042.97
2023-09-23T21:28:30.258Z,102048.41
2023-09-23T21:30:58.496Z,102052.84
2023-09-23T21:33:27.115Z,102060.81
2023-09-23T21:35:56.976Z,102060.78
2023-09-23T21:38:25.291Z,102052.75
2023-09-23T21:40:53.518Z,102051.84
2023-09-23T21:43:21.795Z,102061.59
2023-09-23T21:45:51.447Z,102060.72
2023-09-23T21:48:19.872Z,102073.16
2023-09-23T21:50:58.921Z,102068.91
2023-09-23T21:53:28.472Z,102076.94
2023-09-23T21:55:58.555Z,102055.75
2023-09-23T21:58:27.486Z,102076.16
2023-09-23T22:01:01.243Z,102054.84
2023-09-23T22:03:32.250Z,102080.59
2023-09-23T22:06:02.450Z,102077.09
2023-09-23T22:08:31.186Z,102078.88
2023-09-23T22:10:59.536Z,102069.13
2023-09-23T22:13:29.662Z,102067.38
2023-09-23T22:15:58.005Z,102069.16
2023-09-23T22:18:26.440Z,102073.56
2023-09-23T22:20:54.713Z,102073.47
2023-09-23T22:23:24.482Z,102061.94
2023-09-23T22:25:54.150Z,102068.13
2023-09-23T22:28:22.467Z,102060.13
2023-09-23T22:30:51.483Z,102071.63
2023-09-23T22:33:19.925Z,102067.13
2023-09-23T22:35:48.836Z,102082.22
2023-09-23T22:38:18.268Z,102071.56
2023-09-23T22:40:50.864Z,102077.72
2023-09-23T22:43:19.478Z,102083.00
2023-09-23T22:45:47.764Z,102082.09
2023-09-23T22:48:16.082Z,102077.75
2023-09-23T22:50:45.484Z,102075.09
2023-09-23T22:53:14.202Z,102066.28
2023-09-23T22:55:42.679Z,102075.19
2023-09-23T22:58:12.348Z,102077.88
2023-09-23T23:00:40.964Z,102075.19
2023-09-23T23:03:09.424Z,102075.25
2023-09-23T23:05:38.980Z,102075.25
2023-09-23T23:08:09.203Z,102069.91
2023-09-23T23:10:38.348Z,102073.47
2023-09-23T23:13:10.730Z,102077.91
2023-09-23T23:15:41.641Z,102073.50
2023-09-23T23:18:10.777Z,102080.63
2023-09-23T23:20:39.844Z,102081.47
2023-09-23T23:23:08.320Z,102071.69
2023-09-23T23:25:38.218Z,102083.25
2023-09-23T23:28:08.257Z,102083.25
2023-09-23T23:30:38.180Z,102083.25
2023-09-23T23:33:08.228Z,102085.88
2023-09-23T23:35:38.518Z,102094.81
2023-09-23T23:38:07.071Z,102092.09
2023-09-23T23:40:35.360Z,102100.09
2023-09-23T23:43:04.166Z,102096.47
2023-09-23T23:45:32.432Z,102098.31
2023-09-23T23:48:00.767Z,102109.00
2023-09-23T23:50:31.397Z,102112.59
2023-09-23T23:52:59.631Z,102118.84
2023-09-23T23:55:27.952Z,102110.84
2023-09-23T23:57:56.235Z,102120.63
